Terminal Aerodrome Forecast
Issued by NWS

Home | Current Version | Previous Version | Text Only | Print | Product List | Glossary On
Versions: 1 2 3 4 5 6 7 8 9 10 11 12 13 14 15 16 17 18 19 20 21
000
FTUS41 KOKX 221100
TAFSWF
TAF
KSWF 221121Z 2212/2318 VRB05KT P6SM BKN035
     FM221500 11007KT 6SM BR SCT025 BKN035
     FM230000 10007KT P6SM OVC030
     FM230700 09005KT 5SM BR OVC018
     FM231400 07006KT P6SM BKN025
      AMD NOT SKED=

USA.gov is the U.S. government's official web portal to all federal, state and local government web resources and services.